sensor_id;sensor_type;location;lat;lon;timestamp;pressure;altitude;pressure_sealevel;temperature;humidity
48527;BME280;34317;51.660;5.824;2023-03-14T00:01:22;98901.59;;;15.55;53.33
48527;BME280;34317;51.660;5.824;2023-03-14T00:03:50;98900.91;;;15.53;53.49
48527;BME280;34317;51.660;5.824;2023-03-14T00:06:17;98902.88;;;15.51;53.66
48527;BME280;34317;51.660;5.824;2023-03-14T00:08:45;98890.84;;;15.47;53.89
48527;BME280;34317;51.660;5.824;2023-03-14T00:11:18;98896.75;;;15.41;54.15
48527;BME280;34317;51.660;5.824;2023-03-14T00:13:49;98874.34;;;15.33;54.27
48527;BME280;34317;51.660;5.824;2023-03-14T00:16:16;98876.59;;;15.28;54.33
48527;BME280;34317;51.660;5.824;2023-03-14T00:18:44;98870.88;;;15.23;54.43
48527;BME280;34317;51.660;5.824;2023-03-14T00:21:11;98868.53;;;15.20;54.62
48527;BME280;34317;51.660;5.824;2023-03-14T00:23:39;98867.09;;;15.16;54.74
48527;BME280;34317;51.660;5.824;2023-03-14T00:26:12;98878.09;;;15.13;54.76
48527;BME280;34317;51.660;5.824;2023-03-14T00:28:40;98881.72;;;15.12;54.88
48527;BME280;34317;51.660;5.824;2023-03-14T00:31:11;98883.69;;;15.10;54.95
48527;BME280;34317;51.660;5.824;2023-03-14T00:33:41;98885.69;;;15.08;55.02
48527;BME280;34317;51.660;5.824;2023-03-14T00:36:11;98903.66;;;15.06;54.96
48527;BME280;34317;51.660;5.824;2023-03-14T00:38:39;98900.28;;;15.04;54.90
48527;BME280;34317;51.660;5.824;2023-03-14T00:41:09;98891.59;;;15.02;54.94
48527;BME280;34317;51.660;5.824;2023-03-14T00:43:37;98895.56;;;14.97;55.09
48527;BME280;34317;51.660;5.824;2023-03-14T00:46:05;98902.00;;;14.95;55.04
48527;BME280;34317;51.660;5.824;2023-03-14T00:48:32;98887.13;;;14.92;55.08
48527;BME280;34317;51.660;5.824;2023-03-14T00:51:01;98899.78;;;14.90;55.02
48527;BME280;34317;51.660;5.824;2023-03-14T00:53:28;98908.03;;;14.87;55.02
48527;BME280;34317;51.660;5.824;2023-03-14T00:55:55;98902.31;;;14.82;54.70
48527;BME280;34317;51.660;5.824;2023-03-14T00:58:22;98900.91;;;14.78;54.64
48527;BME280;34317;51.660;5.824;2023-03-14T01:00:50;98903.16;;;14.73;54.21
48527;BME280;34317;51.660;5.824;2023-03-14T01:03:17;98914.41;;;14.67;54.08
48527;BME280;34317;51.660;5.824;2023-03-14T01:05:44;98916.50;;;14.63;54.03
48527;BME280;34317;51.660;5.824;2023-03-14T01:08:11;98918.63;;;14.59;53.94
48527;BME280;34317;51.660;5.824;2023-03-14T01:10:39;98920.59;;;14.57;53.90
48527;BME280;34317;51.660;5.824;2023-03-14T01:13:08;98911.88;;;14.55;53.78
48527;BME280;34317;51.660;5.824;2023-03-14T01:15:36;98904.88;;;14.54;53.66
48527;BME280;34317;51.660;5.824;2023-03-14T01:18:04;98903.19;;;14.53;53.65
48527;BME280;34317;51.660;5.824;2023-03-14T01:20:31;98913.13;;;14.51;53.63
48527;BME280;34317;51.660;5.824;2023-03-14T01:22:58;98910.47;;;14.51;53.46
48527;BME280;34317;51.660;5.824;2023-03-14T01:25:25;98908.50;;;14.53;53.55
48527;BME280;34317;51.660;5.824;2023-03-14T01:27:53;98908.50;;;14.53;53.51
48527;BME280;34317;51.660;5.824;2023-03-14T01:30:21;98904.88;;;14.54;53.29
48527;BME280;34317;51.660;5.824;2023-03-14T01:32:48;98901.22;;;14.55;53.30
48527;BME280;34317;51.660;5.824;2023-03-14T01:35:15;98899.53;;;14.54;53.15
48527;BME280;34317;51.660;5.824;2023-03-14T01:37:43;98894.22;;;14.54;53.11
48527;BME280;34317;51.660;5.824;2023-03-14T01:40:15;98895.03;;;14.55;53.00
48527;BME280;34317;51.660;5.824;2023-03-14T01:42:46;98881.59;;;14.56;52.93
48527;BME280;34317;51.660;5.824;2023-03-14T01:48:18;98873.72;;;14.55;52.95
48527;BME280;34317;51.660;5.824;2023-03-14T01:50:45;98875.56;;;14.54;52.92
48527;BME280;34317;51.660;5.824;2023-03-14T01:53:13;98870.25;;;14.54;52.83
48527;BME280;34317;51.660;5.824;2023-03-14T01:55:40;98869.25;;;14.55;52.85
48527;BME280;34317;51.660;5.824;2023-03-14T01:58:08;98863.22;;;14.53;52.79
48527;BME280;34317;51.660;5.824;2023-03-14T02:00:35;98851.59;;;14.54;52.71
48527;BME280;34317;51.660;5.824;2023-03-14T02:03:07;98846.41;;;14.53;52.81
48527;BME280;34317;51.660;5.824;2023-03-14T02:05:38;98856.91;;;14.54;52.80
48527;BME280;34317;51.660;5.824;2023-03-14T02:08:15;98852.56;;;14.53;52.60
48527;BME280;34317;51.660;5.824;2023-03-14T02:11:04;98853.56;;;14.52;52.68
48527;BME280;34317;51.660;5.824;2023-03-14T02:14:04;98856.38;;;14.51;52.75
48527;BME280;34317;51.660;5.824;2023-03-14T02:16:54;98858.16;;;14.50;52.63
48527;BME280;34317;51.660;5.824;2023-03-14T02:22:55;98848.78;;;14.46;52.77
48527;BME280;34317;51.660;5.824;2023-03-14T02:25:44;98858.59;;;14.46;52.82
48527;BME280;34317;51.660;5.824;2023-03-14T02:28:14;98852.44;;;14.45;52.67
48527;BME280;34317;51.660;5.824;2023-03-14T02:30:42;98863.94;;;14.46;52.83
48527;BME280;34317;51.660;5.824;2023-03-14T02:33:12;98852.44;;;14.45;52.87
48527;BME280;34317;51.660;5.824;2023-03-14T02:35:51;98855.81;;;14.47;52.80
48527;BME280;34317;51.660;5.824;2023-03-14T02:38:28;98857.47;;;14.48;52.72
48527;BME280;34317;51.660;5.824;2023-03-14T02:40:59;98860.81;;;14.50;52.74
48527;BME280;34317;51.660;5.824;2023-03-14T02:43:27;98857.34;;;14.50;52.69
48527;BME280;34317;51.660;5.824;2023-03-14T02:46:01;98850.16;;;14.50;52.95
48527;BME280;34317;51.660;5.824;2023-03-14T02:49:02;98860.81;;;14.50;52.75
48527;BME280;34317;51.660;5.824;2023-03-14T02:51:32;98851.88;;;14.51;52.91
48527;BME280;34317;51.660;5.824;2023-03-14T02:53:59;98842.91;;;14.52;52.91
48527;BME280;34317;51.660;5.824;2023-03-14T02:56:26;98841.06;;;14.53;52.88
48527;BME280;34317;51.660;5.824;2023-03-14T02:58:54;98840.94;;;14.54;52.75
48527;BME280;34317;51.660;5.824;2023-03-14T03:01:31;98834.75;;;14.54;52.67
48527;BME280;34317;51.660;5.824;2023-03-14T03:03:58;98847.09;;;14.55;52.74
48527;BME280;34317;51.660;5.824;2023-03-14T03:06:25;98844.56;;;14.53;52.81
48527;BME280;34317;51.660;5.824;2023-03-14T03:08:53;98840.94;;;14.54;52.94
48527;BME280;34317;51.660;5.824;2023-03-14T03:11:20;98844.56;;;14.53;52.80
48527;BME280;34317;51.660;5.824;2023-03-14T03:13:47;98842.91;;;14.52;52.97
48527;BME280;34317;51.660;5.824;2023-03-14T03:16:15;98848.22;;;14.52;53.13
48527;BME280;34317;51.660;5.824;2023-03-14T03:18:42;98846.53;;;14.51;53.04
48527;BME280;34317;51.660;5.824;2023-03-14T03:21:09;98847.50;;;14.50;53.33
48527;BME280;34317;51.660;5.824;2023-03-14T03:23:36;98846.81;;;14.48;53.18
48527;BME280;34317;51.660;5.824;2023-03-14T03:26:05;98841.78;;;14.45;53.18
48527;BME280;34317;51.660;5.824;2023-03-14T03:28:33;98835.78;;;14.43;53.40
48527;BME280;34317;51.660;5.824;2023-03-14T03:31:07;98831.41;;;14.42;53.54
48527;BME280;34317;51.660;5.824;2023-03-14T03:33:36;98836.75;;;14.42;53.35
48527;BME280;34317;51.660;5.824;2023-03-14T03:36:04;98828.06;;;14.40;53.47
48527;BME280;34317;51.660;5.824;2023-03-14T03:38:35;98833.38;;;14.40;53.47
48527;BME280;34317;51.660;5.824;2023-03-14T03:41:06;98831.69;;;14.39;53.65
48527;BME280;34317;51.660;5.824;2023-03-14T03:43:34;98838.72;;;14.40;53.81
48527;BME280;34317;51.660;5.824;2023-03-14T03:46:04;98840.41;;;14.41;53.74
48527;BME280;34317;51.660;5.824;2023-03-14T03:48:32;98835.91;;;14.41;53.80
48527;BME280;34317;51.660;5.824;2023-03-14T03:51:02;98833.38;;;14.40;53.70
48527;BME280;34317;51.660;5.824;2023-03-14T03:53:30;98831.69;;;14.39;53.72
48527;BME280;34317;51.660;5.824;2023-03-14T03:56:03;98827.38;;;14.38;53.81
48527;BME280;34317;51.660;5.824;2023-03-14T03:58:30;98833.53;;;14.38;53.77
48527;BME280;34317;51.660;5.824;2023-03-14T04:00:57;98823.00;;;14.37;53.83
48527;BME280;34317;51.660;5.824;2023-03-14T04:03:25;98824.16;;;14.34;53.89
48527;BME280;34317;51.660;5.824;2023-03-14T04:06:03;98823.31;;;14.34;53.86
48527;BME280;34317;51.660;5.824;2023-03-14T04:08:33;98823.59;;;14.31;53.89
48527;BME280;34317;51.660;5.824;2023-03-14T04:11:01;98816.59;;;14.30;53.77
48527;BME280;34317;51.660;5.824;2023-03-14T04:13:44;98815.72;;;14.29;53.85
48527;BME280;34317;51.660;5.824;2023-03-14T04:16:18;98807.88;;;14.28;53.78
48527;BME280;34317;51.660;5.824;2023-03-14T04:18:45;98806.09;;;14.28;53.80
48527;BME280;34317;51.660;5.824;2023-03-14T04:21:12;98800.91;;;14.27;53.87
48527;BME280;34317;51.660;5.824;2023-03-14T04:23:49;98812.50;;;14.26;54.00
48527;BME280;34317;51.660;5.824;2023-03-14T04:26:17;98818.00;;;14.24;53.89
48527;BME280;34317;51.660;5.824;2023-03-14T04:28:45;98818.16;;;14.23;53.81
48527;BME280;34317;51.660;5.824;2023-03-14T04:31:18;98817.44;;;14.20;53.90
48527;BME280;34317;51.660;5.824;2023-03-14T04:33:46;98814.09;;;14.18;53.87
48527;BME280;34317;51.660;5.824;2023-03-14T04:36:16;98810.69;;;14.16;53.87
48527;BME280;34317;51.660;5.824;2023-03-14T04:38:43;98809.03;;;14.15;53.83
48527;BME280;34317;51.660;5.824;2023-03-14T04:41:11;98802.03;;;14.14;53.91
48527;BME280;34317;51.660;5.824;2023-03-14T04:43:39;98797.84;;;14.12;53.71
48527;BME280;34317;51.660;5.824;2023-03-14T04:46:08;98795.31;;;14.10;53.80
48527;BME280;34317;51.660;5.824;2023-03-14T04:48:35;98792.22;;;14.05;53.88
48527;BME280;34317;51.660;5.824;2023-03-14T04:51:03;98788.16;;;14.01;53.80
48527;BME280;34317;51.660;5.824;2023-03-14T04:53:32;98785.81;;;13.98;53.86
48527;BME280;34317;51.660;5.824;2023-03-14T04:56:04;98791.41;;;13.95;53.96
48527;BME280;34317;51.660;5.824;2023-03-14T04:58:36;98792.53;;;13.92;54.15
48527;BME280;34317;51.660;5.824;2023-03-14T05:01:05;98784.69;;;13.91;54.18
48527;BME280;34317;51.660;5.824;2023-03-14T05:03:39;98790.97;;;13.90;54.14
48527;BME280;34317;51.660;5.824;2023-03-14T05:06:09;98785.81;;;13.88;54.34
48527;BME280;34317;51.660;5.824;2023-03-14T05:08:44;98783.56;;;13.83;54.46
48527;BME280;34317;51.660;5.824;2023-03-14T05:11:14;98792.56;;;13.82;54.58
48527;BME280;34317;51.660;5.824;2023-03-14T05:14:20;98785.81;;;13.78;54.68
48527;BME280;34317;51.660;5.824;2023-03-14T05:16:56;98784.28;;;13.76;54.75
48527;BME280;34317;51.660;5.824;2023-03-14T05:19:47;98792.53;;;13.73;54.87
48527;BME280;34317;51.660;5.824;2023-03-14T05:22:26;98788.34;;;13.70;55.36
48527;BME280;34317;51.660;5.824;2023-03-14T05:25:12;98790.56;;;13.65;55.49
48527;BME280;34317;51.660;5.824;2023-03-14T05:28:02;98787.22;;;13.63;55.65
48527;BME280;34317;51.660;5.824;2023-03-14T05:30:57;98787.50;;;13.60;55.87
48527;BME280;34317;51.660;5.824;2023-03-14T05:33:43;98789.44;;;13.58;55.92
48527;BME280;34317;51.660;5.824;2023-03-14T05:36:17;98786.94;;;13.56;56.30
48527;BME280;34317;51.660;5.824;2023-03-14T05:39:01;98788.91;;;13.54;56.38
48527;BME280;34317;51.660;5.824;2023-03-14T05:41:39;98792.66;;;13.52;56.36
48527;BME280;34317;51.660;5.824;2023-03-14T05:44:29;98795.63;;;13.49;56.46
48527;BME280;34317;51.660;5.824;2023-03-14T05:47:07;98790.56;;;13.46;56.76
48527;BME280;34317;51.660;5.824;2023-03-14T05:49:34;98783.53;;;13.44;56.56
48527;BME280;34317;51.660;5.824;2023-03-14T05:52:22;98791.69;;;13.43;56.68
48527;BME280;34317;51.660;5.824;2023-03-14T05:55:21;98787.47;;;13.40;56.78
48527;BME280;34317;51.660;5.824;2023-03-14T05:58:08;98787.47;;;13.40;56.70
48527;BME280;34317;51.660;5.824;2023-03-14T06:00:54;98777.13;;;13.37;56.76
48527;BME280;34317;51.660;5.824;2023-03-14T06:03:39;98779.06;;;13.35;56.82
48527;BME280;34317;51.660;5.824;2023-03-14T06:06:07;98777.38;;;13.34;57.05
48527;BME280;34317;51.660;5.824;2023-03-14T06:08:34;98766.75;;;13.34;57.12
48527;BME280;34317;51.660;5.824;2023-03-14T06:11:03;98763.09;;;13.35;57.29
48527;BME280;34317;51.660;5.824;2023-03-14T06:13:30;98761.16;;;13.37;57.30
48527;BME280;34317;51.660;5.824;2023-03-14T06:15:58;98761.16;;;13.37;57.56
48527;BME280;34317;51.660;5.824;2023-03-14T06:18:25;98758.50;;;13.37;57.35
48527;BME280;34317;51.660;5.824;2023-03-14T06:20:54;98755.69;;;13.39;57.41
48527;BME280;34317;51.660;5.824;2023-03-14T06:23:25;98762.56;;;13.41;57.58
48527;BME280;34317;51.660;5.824;2023-03-14T06:25:54;98759.91;;;13.41;57.46
48527;BME280;34317;51.660;5.824;2023-03-14T06:28:23;98772.91;;;13.44;57.76
48527;BME280;34317;51.660;5.824;2023-03-14T06:30:53;98768.44;;;13.45;57.65
48527;BME280;34317;51.660;5.824;2023-03-14T06:33:20;98770.13;;;13.46;57.66
48527;BME280;34317;51.660;5.824;2023-03-14T06:35:47;98769.28;;;13.46;57.81
48527;BME280;34317;51.660;5.824;2023-03-14T06:38:14;98777.97;;;13.48;57.88
48527;BME280;34317;51.660;5.824;2023-03-14T06:40:42;98776.00;;;13.50;58.00
48527;BME280;34317;51.660;5.824;2023-03-14T06:43:16;98777.69;;;13.51;57.84
48527;BME280;34317;51.660;5.824;2023-03-14T06:45:45;98769.56;;;13.52;57.97
48527;BME280;34317;51.660;5.824;2023-03-14T06:48:13;98768.44;;;13.55;58.08
48527;BME280;34317;51.660;5.824;2023-03-14T06:50:48;98777.13;;;13.57;58.07
48527;BME280;34317;51.660;5.824;2023-03-14T06:53:15;98779.66;;;13.58;58.05
48527;BME280;34317;51.660;5.824;2023-03-14T06:55:43;98775.16;;;13.59;58.19
48527;BME280;34317;51.660;5.824;2023-03-14T06:58:11;98785.53;;;13.62;58.17
48527;BME280;34317;51.660;5.824;2023-03-14T07:00:42;98778.25;;;13.64;58.16
48527;BME280;34317;51.660;5.824;2023-03-14T07:03:13;98777.25;;;13.65;58.43
48527;BME280;34317;51.660;5.824;2023-03-14T07:05:43;98790.28;;;13.68;58.41
48527;BME280;34317;51.660;5.824;2023-03-14T07:08:10;98799.94;;;13.69;58.42
48527;BME280;34317;51.660;5.824;2023-03-14T07:10:38;98794.34;;;13.72;58.59
48527;BME280;34317;51.660;5.824;2023-03-14T07:13:07;98793.09;;;13.76;58.48
48527;BME280;34317;51.660;5.824;2023-03-14T07:15:42;98799.81;;;13.80;58.51
48527;BME280;34317;51.660;5.824;2023-03-14T07:18:09;98798.69;;;13.83;58.46
48527;BME280;34317;51.660;5.824;2023-03-14T07:20:37;98801.06;;;13.86;58.58
48527;BME280;34317;51.660;5.824;2023-03-14T07:23:05;98798.00;;;13.91;58.66
48527;BME280;34317;51.660;5.824;2023-03-14T07:25:39;98810.88;;;13.95;58.61
48527;BME280;34317;51.660;5.824;2023-03-14T07:28:08;98817.75;;;13.98;58.66
48527;BME280;34317;51.660;5.824;2023-03-14T07:30:37;98815.47;;;14.03;58.57
48527;BME280;34317;51.660;5.824;2023-03-14T07:33:11;98815.47;;;14.03;58.62
48527;BME280;34317;51.660;5.824;2023-03-14T07:35:38;98816.34;;;14.04;58.53
48527;BME280;34317;51.660;5.824;2023-03-14T07:38:05;98817.19;;;14.04;58.66
48527;BME280;34317;51.660;5.824;2023-03-14T07:40:38;98826.13;;;14.03;58.55
48527;BME280;34317;51.660;5.824;2023-03-14T07:43:06;98824.47;;;14.02;58.90
48527;BME280;34317;51.660;5.824;2023-03-14T07:45:41;98865.34;;;14.01;58.67
48527;BME280;34317;51.660;5.824;2023-03-14T07:48:09;98902.91;;;13.98;58.38
48527;BME280;34317;51.660;5.824;2023-03-14T07:50:36;98916.06;;;13.90;57.88
48527;BME280;34317;51.660;5.824;2023-03-14T07:53:03;98926.66;;;13.70;57.43
48527;BME280;34317;51.660;5.824;2023-03-14T07:55:30;98933.91;;;13.49;57.13
48527;BME280;34317;51.660;5.824;2023-03-14T07:57:58;98953.38;;;13.28;57.30
48527;BME280;34317;51.660;5.824;2023-03-14T08:00:25;98958.31;;;13.12;57.29
48527;BME280;34317;51.660;5.824;2023-03-14T08:02:52;98973.63;;;12.98;57.35
48527;BME280;34317;51.660;5.824;2023-03-14T08:05:19;98978.31;;;12.85;57.53
48527;BME280;34317;51.660;5.824;2023-03-14T08:07:46;98989.97;;;12.73;57.59
48527;BME280;34317;51.660;5.824;2023-03-14T08:10:13;98998.97;;;12.60;57.58
48527;BME280;34317;51.660;5.824;2023-03-14T08:12:49;99008.78;;;12.49;57.82
48527;BME280;34317;51.660;5.824;2023-03-14T08:15:16;99003.38;;;12.39;57.75
48527;BME280;34317;51.660;5.824;2023-03-14T08:17:43;99007.78;;;12.29;58.06
48527;BME280;34317;51.660;5.824;2023-03-14T08:20:11;99022.50;;;12.21;58.16
48527;BME280;34317;51.660;5.824;2023-03-14T08:22:39;99030.25;;;12.13;57.96
48527;BME280;34317;51.660;5.824;2023-03-14T08:25:06;99034.38;;;12.06;58.08
48527;BME280;34317;51.660;5.824;2023-03-14T08:27:34;99039.91;;;12.03;58.11
48527;BME280;34317;51.660;5.824;2023-03-14T08:30:01;99059.69;;;11.99;58.36
48527;BME280;34317;51.660;5.824;2023-03-14T08:32:28;99063.56;;;11.95;58.25
48527;BME280;34317;51.660;5.824;2023-03-14T08:34:56;99072.47;;;11.94;58.39
48527;BME280;34317;51.660;5.824;2023-03-14T08:37:23;99083.34;;;11.91;58.35
48527;BME280;34317;51.660;5.824;2023-03-14T08:39:53;99088.66;;;11.91;58.63
48527;BME280;34317;51.660;5.824;2023-03-14T08:42:20;99093.97;;;11.91;58.75
48527;BME280;34317;51.660;5.824;2023-03-14T08:44:47;99093.97;;;11.91;58.58
48527;BME280;34317;51.660;5.824;2023-03-14T08:47:14;99110.81;;;11.90;58.80
48527;BME280;34317;51.660;5.824;2023-03-14T08:49:42;99134.69;;;11.90;58.94
48527;BME280;34317;51.660;5.824;2023-03-14T08:52:09;99129.16;;;11.93;58.94
48527;BME280;34317;51.660;5.824;2023-03-14T08:54:36;99143.16;;;11.95;59.03
48527;BME280;34317;51.660;5.824;2023-03-14T08:57:03;99137.59;;;11.98;59.13
48527;BME280;34317;51.660;5.824;2023-03-14T08:59:31;99149.66;;;12.02;59.10
48527;BME280;34317;51.660;5.824;2023-03-14T09:01:58;99156.66;;;12.03;59.07
48527;BME280;34317;51.660;5.824;2023-03-14T09:04:25;99155.69;;;12.04;59.22
48527;BME280;34317;51.660;5.824;2023-03-14T09:06:52;99170.63;;;12.05;59.04
48527;BME280;34317;51.660;5.824;2023-03-14T09:09:19;99186.56;;;12.05;58.97
48527;BME280;34317;51.660;5.824;2023-03-14T09:11:46;99192.97;;;12.02;58.70
48527;BME280;34317;51.660;5.824;2023-03-14T09:14:13;99199.38;;;12.00;58.72
48527;BME280;34317;51.660;5.824;2023-03-14T09:16:40;99208.28;;;11.99;58.65
48527;BME280;34317;51.660;5.824;2023-03-14T09:19:07;99229.72;;;11.96;58.72
48527;BME280;34317;51.660;5.824;2023-03-14T09:21:35;99247.81;;;11.91;58.50
48527;BME280;34317;51.660;5.824;2023-03-14T09:24:02;99259.81;;;11.83;58.33
48527;BME280;34317;51.660;5.824;2023-03-14T09:26:29;99280.28;;;11.70;58.02
48527;BME280;34317;51.660;5.824;2023-03-14T09:28:56;99298.28;;;11.54;57.89
48527;BME280;34317;51.660;5.824;2023-03-14T09:31:24;99312.78;;;11.37;57.58
48527;BME280;34317;51.660;5.824;2023-03-14T09:33:51;99321.75;;;11.23;57.75
48527;BME280;34317;51.660;5.824;2023-03-14T09:36:18;99336.59;;;11.13;57.96
48527;BME280;34317;51.660;5.824;2023-03-14T09:38:45;99338.31;;;11.01;58.04
48527;BME280;34317;51.660;5.824;2023-03-14T09:41:21;99359.09;;;10.94;58.01
48527;BME280;34317;51.660;5.824;2023-03-14T09:44:04;99375.41;;;10.88;58.31
48527;BME280;34317;51.660;5.824;2023-03-14T09:46:35;99383.69;;;10.83;58.38
48527;BME280;34317;51.660;5.824;2023-03-14T09:49:10;99388.34;;;10.80;58.42
48527;BME280;34317;51.660;5.824;2023-03-14T09:51:39;99400.88;;;10.78;58.22
48527;BME280;34317;51.660;5.824;2023-03-14T09:56:51;99417.16;;;10.71;58.58
48527;BME280;34317;51.660;5.824;2023-03-14T09:59:18;99432.84;;;10.75;58.40
48527;BME280;34317;51.660;5.824;2023-03-14T10:01:46;99430.50;;;10.83;58.67
48527;BME280;34317;51.660;5.824;2023-03-14T10:04:16;99449.38;;;10.91;58.54
48527;BME280;34317;51.660;5.824;2023-03-14T10:06:45;99455.97;;;10.98;58.71
48527;BME280;34317;51.660;5.824;2023-03-14T10:09:22;99476.72;;;11.04;58.22
48527;BME280;34317;51.660;5.824;2023-03-14T10:11:57;99492.19;;;11.10;58.28
48527;BME280;34317;51.660;5.824;2023-03-14T10:14:37;99497.28;;;11.14;57.83
48527;BME280;34317;51.660;5.824;2023-03-14T10:17:12;99514.88;;;11.15;57.89
48527;BME280;34317;51.660;5.824;2023-03-14T10:19:58;99532.66;;;11.13;57.52
48527;BME280;34317;51.660;5.824;2023-03-14T10:22:29;99538.19;;;11.09;57.65
48527;BME280;34317;51.660;5.824;2023-03-14T10:25:03;99546.25;;;11.08;57.38
48527;BME280;34317;51.660;5.824;2023-03-14T10:27:33;99569.44;;;11.04;57.00
48527;BME280;34317;51.660;5.824;2023-03-14T10:30:04;99572.28;;;11.01;57.20
48527;BME280;34317;51.660;5.824;2023-03-14T10:32:37;99584.81;;;10.99;56.93
48527;BME280;34317;51.660;5.824;2023-03-14T10:35:19;99606.19;;;10.96;56.80
48527;BME280;34317;51.660;5.824;2023-03-14T10:38:01;99609.81;;;10.95;56.90
48527;BME280;34317;51.660;5.824;2023-03-14T10:40:49;99627.50;;;10.95;56.64
48527;BME280;34317;51.660;5.824;2023-03-14T10:43:25;99632.69;;;10.96;56.84
48527;BME280;34317;51.660;5.824;2023-03-14T10:45:56;99635.03;;;11.01;56.59
48527;BME280;34317;51.660;5.824;2023-03-14T10:48:36;99655.16;;;11.03;56.56
48527;BME280;34317;51.660;5.824;2023-03-14T10:51:25;99663.69;;;11.08;56.21
48527;BME280;34317;51.660;5.824;2023-03-14T10:53:56;99667.06;;;11.10;56.24
48527;BME280;34317;51.660;5.824;2023-03-14T10:56:25;99663.25;;;11.15;56.31
48527;BME280;34317;51.660;5.824;2023-03-14T10:58:57;99689.38;;;11.21;56.12
48527;BME280;34317;51.660;5.824;2023-03-14T11:07:09;99714.03;;;11.48;55.91
48527;BME280;34317;51.660;5.824;2023-03-14T11:09:50;99720.81;;;11.53;55.63
48527;BME280;34317;51.660;5.824;2023-03-14T11:12:36;99726.66;;;11.58;55.56
48527;BME280;34317;51.660;5.824;2023-03-14T11:15:15;99738.03;;;11.60;55.45
48527;BME280;34317;51.660;5.824;2023-03-14T11:18:16;99743.97;;;11.63;55.48
48527;BME280;34317;51.660;5.824;2023-03-14T11:20:53;99754.28;;;11.68;55.27
48527;BME280;34317;51.660;5.824;2023-03-14T11:29:21;99821.88;;;11.75;54.62
48527;BME280;34317;51.660;5.824;2023-03-14T11:31:55;99825.00;;;11.55;53.97
48527;BME280;34317;51.660;5.824;2023-03-14T11:34:29;99844.38;;;11.28;54.00
48527;BME280;34317;51.660;5.824;2023-03-14T11:37:07;99841.53;;;11.04;54.23
48527;BME280;34317;51.660;5.824;2023-03-14T11:39:39;99841.78;;;10.85;54.51
48527;BME280;34317;51.660;5.824;2023-03-14T11:42:12;99854.84;;;10.74;54.60
48527;BME280;34317;51.660;5.824;2023-03-14T11:44:44;99862.41;;;10.65;54.79
48527;BME280;34317;51.660;5.824;2023-03-14T11:50:03;99871.50;;;10.61;55.40
48527;BME280;34317;51.660;5.824;2023-03-14T11:52:35;99883.78;;;10.62;55.50
48527;BME280;34317;51.660;5.824;2023-03-14T11:55:10;99885.31;;;10.66;55.54
48527;BME280;34317;51.660;5.824;2023-03-14T11:57:40;99884.28;;;10.69;55.61
48527;BME280;34317;51.660;5.824;2023-03-14T12:00:16;99890.06;;;10.76;55.66
48527;BME280;34317;51.660;5.824;2023-03-14T12:02:49;99887.97;;;10.81;55.51
48527;BME280;34317;51.660;5.824;2023-03-14T12:11:12;99940.25;;;10.77;55.13
48527;BME280;34317;51.660;5.824;2023-03-14T12:13:46;99944.13;;;10.71;55.34
48527;BME280;34317;51.660;5.824;2023-03-14T12:18:51;99962.88;;;10.68;55.32
48527;BME280;34317;51.660;5.824;2023-03-14T12:21:41;99974.31;;;10.69;55.39
48527;BME280;34317;51.660;5.824;2023-03-14T12:24:21;99968.84;;;10.72;55.33
48527;BME280;34317;51.660;5.824;2023-03-14T12:26:54;99980.88;;;10.78;55.36
48527;BME280;34317;51.660;5.824;2023-03-14T12:29:21;99970.66;;;10.86;55.50
48527;BME280;34317;51.660;5.824;2023-03-14T12:32:24;99982.38;;;10.96;55.42
48527;BME280;34317;51.660;5.824;2023-03-14T12:34:51;99995.84;;;11.07;55.09
48527;BME280;34317;51.660;5.824;2023-03-14T12:37:41;99988.47;;;11.13;54.71
48527;BME280;34317;51.660;5.824;2023-03-14T12:40:21;99989.13;;;11.16;54.50
48527;BME280;34317;51.660;5.824;2023-03-14T12:43:03;100003.81;;;11.22;54.41
48527;BME280;34317;51.660;5.824;2023-03-14T12:45:35;99996.22;;;11.30;54.42
48527;BME280;34317;51.660;5.824;2023-03-14T12:50:46;99995.84;;;11.50;54.11
48527;BME280;34317;51.660;5.824;2023-03-14T12:53:37;99996.78;;;11.64;54.24
48527;BME280;34317;51.660;5.824;2023-03-14T12:59:11;100013.44;;;11.95;53.39
48527;BME280;34317;51.660;5.824;2023-03-14T13:04:32;100022.88;;;12.13;52.97
48527;BME280;34317;51.660;5.824;2023-03-14T13:07:28;100035.00;;;12.17;52.35
48527;BME280;34317;51.660;5.824;2023-03-14T13:10:00;100054.16;;;12.22;52.08
48527;BME280;34317;51.660;5.824;2023-03-14T13:12:34;100060.22;;;12.24;51.62
48527;BME280;34317;51.660;5.824;2023-03-14T13:15:15;100063.59;;;12.26;51.46
48527;BME280;34317;51.660;5.824;2023-03-14T13:17:44;100064.34;;;12.29;51.14
48527;BME280;34317;51.660;5.824;2023-03-14T13:20:24;100086.75;;;12.24;50.55
48527;BME280;34317;51.660;5.824;2023-03-14T13:22:53;100087.03;;;12.20;50.60
48527;BME280;34317;51.660;5.824;2023-03-14T13:25:20;100080.03;;;12.19;50.48
48527;BME280;34317;51.660;5.824;2023-03-14T13:27:52;100085.13;;;12.22;50.38
48527;BME280;34317;51.660;5.824;2023-03-14T13:30:28;100107.03;;;12.25;50.05
48527;BME280;34317;51.660;5.824;2023-03-14T13:32:56;100112.16;;;12.29;50.01
48527;BME280;34317;51.660;5.824;2023-03-14T13:35:28;100108.53;;;12.30;49.57
48527;BME280;34317;51.660;5.824;2023-03-14T13:37:59;100109.19;;;12.33;49.39
48527;BME280;34317;51.660;5.824;2023-03-14T13:40:43;100118.78;;;12.36;50.30
48527;BME280;34317;51.660;5.824;2023-03-14T13:43:14;100121.97;;;12.41;49.48
48527;BME280;34317;51.660;5.824;2023-03-14T13:48:17;100132.97;;;12.49;49.32
48527;BME280;34317;51.660;5.824;2023-03-14T13:50:48;100137.97;;;12.54;49.05
48527;BME280;34317;51.660;5.824;2023-03-14T13:53:16;100150.97;;;12.58;49.01
48527;BME280;34317;51.660;5.824;2023-03-14T13:55:44;100153.31;;;12.63;48.75
48527;BME280;34317;51.660;5.824;2023-03-14T13:58:20;100162.69;;;12.69;48.48
48527;BME280;34317;51.660;5.824;2023-03-14T14:01:15;100167.22;;;12.81;48.74
48527;BME280;34317;51.660;5.824;2023-03-14T14:03:46;100185.97;;;12.92;48.69
48527;BME280;34317;51.660;5.824;2023-03-14T14:06:38;100186.00;;;13.05;48.10
48527;BME280;34317;51.660;5.824;2023-03-14T14:12:02;100201.25;;;13.16;47.15